createdAt,value
2023-02-07T00:00:44.354Z,91.32
2023-02-07T00:30:41.795Z,90.89
2023-02-07T00:31:41.726Z,90.71
2023-02-07T00:32:42.010Z,90.67
2023-02-07T00:33:43.464Z,90.75
2023-02-07T00:34:42.628Z,91.03
2023-02-07T00:35:43.569Z,91.06
2023-02-07T00:36:43.581Z,90.93
2023-02-07T00:37:43.894Z,91
2023-02-07T00:38:45.338Z,91.09
2023-02-07T00:39:44.706Z,91.05
2023-02-07T00:40:45.128Z,90.83
2023-02-07T00:41:45.960Z,90.96
2023-02-07T00:42:45.963Z,90.86
2023-02-07T00:43:47.516Z,91.11
2023-02-07T00:44:46.981Z,90.97
2023-02-07T00:45:47.228Z,91.01
2023-02-07T00:46:47.632Z,91.1
2023-02-07T00:47:48.065Z,90.97
2023-02-07T00:48:48.371Z,90.76
2023-02-07T00:49:49.089Z,90.83
2023-02-07T00:50:49.298Z,90.79
2023-02-07T00:51:49.715Z,90.94
2023-02-07T00:52:50.027Z,90.79
2023-02-07T00:53:50.441Z,90.79
2023-02-07T00:54:50.958Z,90.86
2023-02-07T00:55:51.497Z,90.86
2023-02-07T00:56:51.889Z,90.74
2023-02-07T00:57:52.142Z,91.03
2023-02-07T00:58:52.941Z,91.29
2023-02-07T00:59:53.039Z,91.01
2023-02-07T01:00:53.852Z,91.05
2023-02-07T01:01:53.771Z,90.94
2023-02-07T01:02:54.707Z,90.92
2023-02-07T01:03:58.495Z,90.75
2023-02-07T01:04:56.010Z,90.84
2023-02-07T01:05:56.770Z,90.9
2023-02-07T01:06:56.956Z,90.47
2023-02-07T01:07:57.209Z,90.5
2023-02-07T01:09:01.417Z,90.63
2023-02-07T01:09:58.738Z,90.66
2023-02-07T01:11:03.984Z,90.51
2023-02-07T01:12:01.412Z,90.57
2023-02-07T01:13:02.061Z,90.36
2023-02-07T01:14:03.290Z,90.34
2023-02-07T01:15:02.777Z,90.45
2023-02-07T01:16:05.989Z,90.51
2023-02-07T01:17:04.739Z,90.68
2023-02-07T01:18:07.503Z,90.77
2023-02-07T01:19:08.335Z,90.87
2023-02-07T01:20:06.298Z,91.08
2023-02-07T01:21:17.990Z,91.2
2023-02-07T01:22:10.498Z,90.8
2023-02-07T01:23:11.325Z,90.71
2023-02-07T01:24:11.231Z,90.79
2023-02-07T01:25:11.637Z,90.86
2023-02-07T01:26:11.879Z,90.94
2023-02-07T01:27:12.483Z,90.95
2023-02-07T01:28:14.579Z,90.9
2023-02-07T01:29:14.754Z,90.99
2023-02-07T01:30:14.032Z,91.29
2023-02-07T01:31:13.963Z,91.47
2023-02-07T01:32:15.072Z,91.65
2023-02-07T01:33:14.601Z,91.38
2023-02-07T01:34:14.887Z,91.38
2023-02-07T01:35:15.296Z,91.69
2023-02-07T01:36:16.523Z,91.71
2023-02-07T01:37:16.358Z,91.59
2023-02-07T01:38:16.566Z,91.48
2023-02-07T01:39:16.863Z,91.21
2023-02-07T01:40:17.387Z,91.14
2023-02-07T01:41:17.685Z,91.17
2023-02-07T01:42:18.737Z,91.23
2023-02-07T01:43:23.011Z,91.21
2023-02-07T01:46:27.653Z,91.37
2023-02-07T01:47:27.270Z,91.44
2023-02-07T01:48:34.838Z,91.53
2023-02-07T01:49:35.750Z,91.45
2023-02-07T01:50:33.843Z,91.6
2023-02-07T01:51:37.326Z,91.56
2023-02-07T01:52:39.990Z,91.66
2023-02-07T01:53:38.862Z,91.53
2023-02-07T01:54:38.277Z,91.41
2023-02-07T01:55:39.991Z,91.45
2023-02-07T01:56:43.940Z,91.36
2023-02-07T01:57:42.187Z,91.31
2023-02-07T01:58:41.754Z,91.26
2023-02-07T01:59:44.000Z,91.2
2023-02-07T02:00:42.413Z,91.34
2023-02-07T02:01:44.548Z,91.28
2023-02-07T02:02:44.228Z,91.28
2023-02-07T02:03:47.127Z,91.18
2023-02-07T02:04:45.297Z,91.32
2023-02-07T02:05:46.427Z,91.58
2023-02-07T02:06:46.536Z,91.64
2023-02-07T02:07:45.832Z,91.69
2023-02-07T02:08:46.497Z,91.7
2023-02-07T02:09:46.560Z,91.87
2023-02-07T02:46:16.430Z,91.73
2023-02-07T02:47:11.281Z,91.68
2023-02-07T02:48:11.485Z,91.71
2023-02-07T02:49:13.545Z,91.7
2023-02-07T02:50:20.114Z,91.97
2023-02-07T02:51:13.038Z,92.05
2023-02-07T02:52:13.255Z,92.07
2023-02-07T02:53:14.387Z,91.9
2023-02-07T02:55:18.805Z,92.06
2023-02-07T03:02:46.601Z,91.68
2023-02-07T03:17:25.814Z,91.28
2023-02-07T03:22:36.918Z,91.21
2023-02-07T03:23:36.703Z,91.37
2023-02-07T03:24:37.637Z,91.49
2023-02-07T03:25:39.191Z,91.61
2023-02-07T03:26:38.583Z,91.64
2023-02-07T03:27:39.088Z,91.45
2023-02-07T03:28:41.449Z,91.48
2023-02-07T03:29:42.483Z,91.49
2023-02-07T03:30:42.313Z,91.53
2023-02-07T03:31:43.656Z,91.6
2023-02-07T03:32:44.245Z,91.81
2023-02-07T03:33:43.599Z,91.8
2023-02-07T03:34:50.300Z,91.84
2023-02-07T03:37:52.162Z,92.14
2023-02-07T03:38:49.909Z,92.22
2023-02-07T03:39:50.632Z,92.29
2023-02-07T03:40:58.431Z,92.36
2023-02-07T03:41:59.662Z,92.4
2023-02-07T03:44:00.504Z,92.83
2023-02-07T03:44:59.677Z,92.62
2023-02-07T03:45:58.667Z,92.59
2023-02-07T03:46:59.997Z,92.33
2023-02-07T03:47:59.093Z,92.21
2023-02-07T03:48:59.506Z,92.28
2023-02-07T03:49:59.816Z,92.44
2023-02-07T03:51:00.342Z,92.44
2023-02-07T03:52:00.860Z,92.44
2023-02-07T03:53:00.963Z,92.52
2023-02-07T03:54:01.479Z,92.64
2023-02-07T03:55:01.815Z,92.62
2023-02-07T03:56:02.222Z,92.71
2023-02-07T03:57:02.527Z,92.46
2023-02-07T03:58:02.838Z,92.36
2023-02-07T03:59:03.773Z,92.23
2023-02-07T04:00:04.793Z,92.14
2023-02-07T04:01:04.590Z,92.15
2023-02-07T04:02:04.463Z,91.7
2023-02-07T04:03:05.337Z,91.58
2023-02-07T04:04:05.342Z,91.54
2023-02-07T04:05:06.367Z,91.59
2023-02-07T04:06:06.482Z,91.63
2023-02-07T04:07:06.823Z,91.66
2023-02-07T04:08:07.119Z,91.7
2023-02-07T04:09:08.750Z,91.96
2023-02-07T04:10:08.149Z,91.97
2023-02-07T04:11:08.150Z,92.08
2023-02-07T04:12:08.655Z,92.12
2023-02-07T04:13:09.097Z,92.23
2023-02-07T04:14:09.517Z,92.1
2023-02-07T04:15:10.329Z,92.04
2023-02-07T04:16:10.245Z,91.99
2023-02-07T04:17:10.754Z,91.99
2023-02-07T04:18:11.181Z,91.88
2023-02-07T04:19:11.492Z,91.91
2023-02-07T04:20:12.824Z,92.01
2023-02-07T04:21:12.210Z,92.08
2023-02-07T04:22:12.631Z,92.09
2023-02-07T04:23:13.576Z,92.03
2023-02-07T04:24:16.532Z,92.15
2023-02-07T04:25:13.984Z,92.36
2023-02-07T04:26:17.169Z,92.52
2023-02-07T04:27:16.143Z,92.56
2023-02-07T04:28:15.079Z,92.53
2023-02-07T04:29:15.445Z,92.46
2023-02-07T04:30:16.470Z,92.52
2023-02-07T04:31:16.466Z,92.62
2023-02-07T04:32:16.695Z,92.65
2023-02-07T04:33:17.110Z,92.77
2023-02-07T04:34:17.432Z,92.85
2023-02-07T04:35:18.246Z,92.92
2023-02-07T04:36:18.556Z,93.14
2023-02-07T04:37:18.782Z,93.3
2023-02-07T04:38:19.083Z,93.27
2023-02-07T04:39:19.914Z,93.18
2023-02-07T04:40:20.538Z,93.18
2023-02-07T04:41:20.456Z,93.1
2023-02-07T04:42:20.769Z,93.11
2023-02-07T04:43:21.364Z,93.04
2023-02-07T04:44:21.788Z,93.09
2023-02-07T04:45:22.211Z,93.2
2023-02-07T04:46:22.429Z,93.11
2023-02-07T04:47:24.056Z,93.26
2023-02-07T04:48:23.560Z,93.26
2023-02-07T04:49:23.680Z,93.26
2023-02-07T04:50:24.188Z,93.34
2023-02-07T04:51:24.594Z,93.46
2023-02-07T04:52:24.918Z,93.44
2023-02-07T04:53:26.059Z,93.39
2023-02-07T04:54:26.050Z,93.39
2023-02-07T04:55:26.265Z,93.53
2023-02-07T04:56:26.588Z,93.57
2023-02-07T04:57:27.107Z,93.69
2023-02-07T04:58:27.617Z,93.85
2023-02-07T04:59:27.831Z,93.79
2023-02-07T05:00:28.449Z,93.71
2023-02-07T05:01:28.733Z,93.75
2023-02-07T05:02:29.174Z,93.78
2023-02-07T05:03:29.474Z,93.87
2023-02-07T05:04:29.943Z,93.85
2023-02-07T05:05:30.326Z,93.89
2023-02-07T05:06:30.649Z,93.97
2023-02-07T05:07:31.164Z,94.05
2023-02-07T05:08:31.577Z,94.03
2023-02-07T05:09:31.884Z,94
2023-02-07T05:10:32.730Z,94.02
2023-02-07T05:11:32.731Z,94.17
2023-02-07T05:12:33.255Z,94.28
2023-02-07T05:13:35.193Z,94.3
2023-02-07T05:14:33.982Z,94.26
2023-02-07T05:15:34.596Z,94.23
2023-02-07T05:16:35.038Z,94.13
2023-02-07T05:17:35.533Z,94.06
2023-02-07T05:18:35.645Z,94.21
2023-02-07T05:19:36.157Z,94.2
2023-02-07T05:20:36.578Z,94.2
2023-02-07T05:21:36.991Z,94.41
2023-02-07T05:22:37.414Z,94.42
2023-02-07T05:23:37.726Z,94.52
2023-02-07T05:24:41.110Z,94.66
2023-02-07T05:25:47.269Z,94.54
2023-02-07T05:26:40.488Z,94.35
2023-02-07T05:27:40.103Z,94.03
2023-02-07T05:28:40.319Z,94.03
2023-02-07T05:29:40.823Z,94.06
2023-02-07T05:30:41.285Z,94.11
2023-02-07T05:31:41.812Z,94.05
2023-02-07T05:32:41.961Z,93.89
2023-02-07T05:33:42.613Z,93.82
2023-02-07T05:34:43.934Z,93.86
2023-02-07T05:35:46.399Z,93.75
2023-02-07T05:36:43.834Z,93.42
2023-02-07T05:37:44.063Z,93.3
2023-02-07T05:38:44.365Z,93.64
2023-02-07T05:39:44.797Z,93.66
2023-02-07T05:40:45.806Z,93.83
2023-02-07T05:41:46.256Z,94.1
2023-02-07T05:42:45.796Z,94.27
2023-02-07T05:43:46.599Z,94.3
2023-02-07T05:44:46.944Z,94.38
2023-02-07T05:45:47.274Z,94.47
2023-02-07T05:46:47.706Z,94.41
2023-02-07T05:47:48.836Z,94.28
2023-02-07T05:48:48.125Z,94.23
2023-02-07T05:49:48.649Z,94.2
2023-02-07T05:50:49.270Z,94.33
2023-02-07T05:51:49.583Z,94.41
2023-02-07T05:52:50.010Z,94.51
2023-02-07T05:53:50.214Z,94.36
2023-02-07T05:54:50.535Z,94.33
2023-02-07T05:55:54.010Z,94.34
2023-02-07T05:56:51.353Z,94.21
2023-02-07T05:57:51.667Z,93.76
2023-02-07T05:58:52.096Z,93.61
2023-02-07T05:59:52.209Z,93.54
2023-02-07T06:00:52.517Z,93.64
2023-02-07T06:01:52.925Z,93.5
2023-02-07T06:02:53.539Z,93.47
2023-02-07T06:03:53.795Z,93.39
2023-02-07T06:04:54.085Z,93.35
2023-02-07T06:05:54.512Z,93.39
2023-02-07T06:06:54.701Z,93.47
2023-02-07T06:07:55.115Z,93.6
2023-02-07T06:08:55.542Z,93.75
2023-02-07T06:09:55.747Z,93.85
2023-02-07T06:10:56.152Z,93.97
2023-02-07T06:11:56.570Z,93.9
2023-02-07T06:12:56.784Z,93.8
2023-02-07T06:13:57.001Z,93.85
2023-02-07T06:14:57.520Z,93.86
2023-02-07T06:15:57.798Z,93.9
2023-02-07T06:16:58.148Z,93.81
2023-02-07T06:17:58.454Z,93.73
2023-02-07T06:18:58.561Z,93.72
2023-02-07T06:19:58.893Z,93.49
2023-02-07T06:20:59.407Z,93.34
2023-02-07T06:21:59.815Z,93.31
2023-02-07T06:22:59.836Z,93.2
2023-02-07T06:24:00.132Z,92.98
2023-02-07T06:25:00.574Z,92.9
2023-02-07T06:26:00.968Z,92.99
2023-02-07T06:27:01.299Z,93.05
2023-02-07T06:28:01.702Z,93.16
2023-02-07T06:29:01.918Z,93.33
2023-02-07T06:30:02.141Z,93.01
2023-02-07T06:31:02.507Z,92.9
2023-02-07T06:32:02.950Z,92.54
2023-02-07T06:33:03.193Z,92.36
2023-02-07T06:34:03.703Z,92.18
2023-02-07T06:35:04.826Z,91.93
2023-02-07T06:36:04.940Z,91.9
2023-02-07T06:37:04.537Z,91.95
2023-02-07T06:38:04.743Z,91.82
2023-02-07T06:39:05.260Z,91.85
2023-02-07T06:40:06.363Z,91.96
2023-02-07T06:41:05.786Z,92.04
2023-02-07T06:42:06.723Z,91.98
2023-02-07T06:43:08.921Z,91.91
2023-02-07T06:44:06.830Z,91.89
2023-02-07T06:45:08.980Z,91.94
2023-02-07T06:46:07.698Z,91.98
2023-02-07T06:47:08.074Z,92.03
2023-02-07T06:48:09.612Z,92.13
2023-02-07T06:49:08.423Z,91.91
2023-02-07T06:50:09.530Z,91.9
2023-02-07T06:51:09.248Z,92.01
2023-02-07T06:52:09.450Z,92.1
2023-02-07T06:53:09.757Z,92.09
2023-02-07T06:54:10.078Z,92.1
2023-02-07T06:55:10.294Z,92.12
2023-02-07T06:56:10.710Z,92.02
2023-02-07T06:57:11.218Z,91.92
2023-02-07T06:58:11.521Z,91.74
2023-02-07T06:59:11.671Z,91.07
2023-02-07T07:00:12.829Z,90.96
2023-02-07T07:01:12.577Z,91.01
2023-02-07T07:02:13.107Z,90.9
2023-02-07T07:03:17.512Z,90.89
2023-02-07T07:04:14.872Z,90.93
2023-02-07T07:05:16.473Z,90.74
2023-02-07T07:06:15.584Z,90.59
2023-02-07T07:07:15.900Z,90.47
2023-02-07T07:08:16.210Z,90.37
2023-02-07T07:09:16.553Z,90.43
2023-02-07T07:10:16.996Z,90.16
2023-02-07T07:11:17.245Z,90.08
2023-02-07T07:12:17.570Z,90.09
2023-02-07T07:13:17.782Z,90.04
2023-02-07T07:14:18.398Z,90.07
2023-02-07T07:15:21.383Z,89.95
2023-02-07T07:16:19.672Z,90.03
2023-02-07T07:17:19.146Z,90.33
2023-02-07T07:18:19.467Z,90.1
2023-02-07T07:19:19.676Z,90.13
2023-02-07T07:20:20.183Z,90.34
2023-02-07T07:21:20.361Z,90.2
2023-02-07T07:22:21.256Z,90.13
2023-02-07T07:23:21.137Z,90.13
2023-02-07T07:24:21.746Z,90.15
2023-02-07T07:25:21.551Z,90.15
2023-02-07T07:26:21.969Z,90.02
2023-02-07T07:27:22.272Z,89.84
2023-02-07T07:28:22.532Z,90.12
2023-02-07T07:29:23.311Z,90.16
2023-02-07T07:30:23.528Z,89.65
2023-02-07T07:31:24.820Z,89.66
2023-02-07T07:32:33.594Z,89.63
2023-02-07T07:33:26.525Z,89.57
2023-02-07T07:34:26.726Z,89.41
2023-02-07T07:35:27.343Z,89.37
2023-02-07T07:36:27.581Z,89.71
2023-02-07T07:37:27.975Z,90.08
2023-02-07T07:38:28.270Z,90.03
2023-02-07T07:39:28.601Z,89.87
2023-02-07T07:40:28.952Z,89.97
2023-02-07T07:41:29.115Z,90.04
2023-02-07T07:42:29.655Z,89.7
2023-02-07T07:43:29.668Z,89.68
2023-02-07T07:44:30.169Z,89.31
2023-02-07T07:45:30.376Z,89.34
2023-02-07T07:46:30.882Z,89.36
2023-02-07T07:47:31.311Z,89.3
2023-02-07T07:48:31.919Z,89.16
2023-02-07T07:49:31.854Z,89.42
2023-02-07T07:50:31.959Z,88.84
2023-02-07T07:51:32.787Z,88.81
2023-02-07T07:52:32.891Z,88.57
2023-02-07T07:53:33.610Z,88.9
2023-02-07T07:54:33.412Z,88.94
2023-02-07T07:55:33.824Z,88.5
2023-02-07T07:56:33.938Z,88.55
2023-02-07T07:57:34.451Z,88.68
2023-02-07T07:58:34.561Z,88.49
2023-02-07T07:59:35.078Z,88.68
2023-02-07T08:00:35.295Z,88.64
2023-02-07T08:01:35.811Z,88.67
2023-02-07T08:02:36.042Z,88.76
2023-02-07T08:03:36.403Z,88.7
2023-02-07T08:04:36.767Z,88.79
2023-02-07T08:05:37.280Z,88.68
2023-02-07T08:06:37.397Z,88.38
2023-02-07T08:07:37.893Z,88.3
2023-02-07T08:08:38.419Z,87.97
2023-02-07T08:09:38.218Z,87.85
2023-02-07T08:10:39.479Z,87.92
2023-02-07T08:11:39.068Z,88.38
2023-02-07T08:12:39.490Z,88.31
2023-02-07T08:13:39.776Z,88.2
2023-02-07T08:14:40.015Z,88.36
2023-02-07T08:15:40.200Z,88.44
2023-02-07T08:16:40.518Z,88.26
2023-02-07T08:17:41.144Z,88.13
2023-02-07T08:18:41.356Z,87.97
2023-02-07T08:19:41.665Z,87.89
2023-02-07T08:20:41.984Z,87.68
2023-02-07T08:21:44.680Z,87.71
2023-02-07T08:22:42.817Z,87.62
2023-02-07T08:23:43.023Z,87.54
2023-02-07T08:24:43.256Z,87.29
2023-02-07T08:25:44.073Z,87.54
2023-02-07T08:26:44.196Z,87.16
2023-02-07T08:27:44.794Z,86.85
2023-02-07T08:28:44.498Z,86.43
2023-02-07T08:29:45.935Z,86.88
2023-02-07T08:30:45.818Z,86.6
2023-02-07T08:31:45.627Z,86.51
2023-02-07T08:32:45.949Z,86.68
2023-02-07T08:33:46.162Z,86.5
2023-02-07T08:34:46.793Z,85.9
2023-02-07T08:35:49.889Z,85.27
2023-02-07T08:36:47.414Z,85.39
2023-02-07T08:37:47.826Z,85.14
2023-02-07T08:38:47.841Z,84.91
2023-02-07T08:39:48.357Z,84.83
2023-02-07T08:40:48.667Z,85.56
2023-02-07T08:41:48.897Z,85.91
2023-02-07T08:42:49.924Z,86.34
2023-02-07T08:43:49.710Z,86.51
2023-02-07T08:44:51.062Z,86.38
2023-02-07T08:45:50.526Z,85.98
2023-02-07T08:46:50.659Z,85.38
2023-02-07T08:47:51.181Z,85.26
2023-02-07T08:48:51.798Z,85.2
2023-02-07T08:49:51.592Z,85.11
2023-02-07T08:50:51.921Z,85.26
2023-02-07T08:51:52.641Z,84.99
2023-02-07T08:52:52.853Z,85.08
2023-02-07T08:53:54.053Z,85.1
2023-02-07T08:54:53.482Z,85.32
2023-02-07T08:55:55.120Z,85.31
2023-02-07T08:56:54.000Z,85.11
2023-02-07T08:57:54.423Z,85.15
2023-02-07T08:58:54.720Z,85.11
2023-02-07T08:59:55.149Z,85.03
2023-02-07T09:00:55.393Z,85.5
2023-02-07T09:01:55.618Z,85.35
2023-02-07T09:02:56.090Z,85.32
2023-02-07T09:03:56.910Z,85.49
2023-02-07T09:04:56.609Z,85.25
2023-02-07T09:06:00.207Z,85.72
2023-02-07T09:06:57.586Z,85.7
2023-02-07T09:07:58.992Z,85.5
2023-02-07T09:09:01.156Z,85.8
2023-02-07T09:09:58.600Z,85.59
2023-02-07T09:10:59.056Z,85.19
2023-02-07T09:11:59.223Z,85.67
2023-02-07T09:12:59.861Z,85.7
2023-02-07T09:13:59.950Z,85.69
2023-02-07T09:15:00.159Z,85.5
2023-02-07T09:16:00.580Z,85.72
2023-02-07T09:17:01.033Z,85.64
2023-02-07T09:18:01.334Z,85.56
2023-02-07T09:19:01.624Z,85.66
2023-02-07T09:20:02.238Z,85.54
2023-02-07T09:21:02.366Z,85.28
2023-02-07T09:22:03.597Z,85.57
2023-02-07T09:23:03.187Z,85.58
2023-02-07T09:24:04.009Z,86.18
2023-02-07T09:25:04.223Z,86.56
2023-02-07T09:26:06.035Z,86.99
2023-02-07T09:27:04.345Z,87.37
2023-02-07T09:28:07.446Z,87.2
2023-02-07T09:29:11.326Z,86.98
2023-02-07T09:30:10.717Z,86.9
2023-02-07T09:31:13.639Z,86.91
2023-02-07T09:32:11.135Z,86.94
2023-02-07T09:33:12.878Z,86.85
2023-02-07T09:34:11.766Z,87.08
2023-02-07T09:35:11.972Z,86.93
2023-02-07T09:37:12.503Z,86.12
2023-02-07T09:38:15.381Z,86.4
2023-02-07T09:39:13.241Z,86.23
2023-02-07T09:40:17.640Z,86.28
2023-02-07T09:45:33.957Z,85.83
2023-02-07T09:46:33.075Z,86.02
2023-02-07T09:47:33.137Z,85.62
2023-02-07T09:50:42.008Z,85.42
2023-02-07T09:51:40.964Z,84.85
2023-02-07T09:56:59.116Z,85.71
2023-02-07T10:01:07.045Z,85.19
2023-02-07T10:05:18.428Z,85.05
2023-02-07T10:07:14.950Z,84.96
2023-02-07T10:08:18.347Z,84.61
2023-02-07T10:09:18.243Z,84.49
2023-02-07T10:10:18.251Z,84.43
2023-02-07T10:26:58.310Z,85.16
2023-02-07T10:31:11.894Z,84.99
2023-02-07T10:36:15.345Z,85.67
2023-02-07T10:42:29.233Z,84.61
2023-02-07T10:43:35.001Z,84.56
2023-02-07T10:44:32.413Z,84.77
2023-02-07T10:45:33.449Z,84.22
2023-02-07T10:46:35.034Z,84.02
2023-02-07T10:47:40.209Z,84.39
2023-02-07T10:48:38.380Z,84.35
2023-02-07T10:49:42.877Z,84.03
2023-02-07T10:50:40.546Z,84.51
2023-02-07T10:51:43.001Z,84.9
2023-02-07T10:55:49.885Z,84.77
2023-02-07T10:56:51.547Z,84
2023-02-07T10:58:02.570Z,83.92
2023-02-07T10:58:49.713Z,84
2023-02-07T11:00:52.092Z,84.09
2023-02-07T11:01:54.354Z,84.05
2023-02-07T11:02:54.331Z,84.4
2023-02-07T11:03:52.816Z,84.02
2023-02-07T11:04:52.404Z,83.39
2023-02-07T11:05:58.765Z,83.25
2023-02-07T11:08:05.209Z,83.75
2023-02-07T11:12:18.562Z,83.59
2023-02-07T11:13:29.193Z,83.18
2023-02-07T11:14:20.129Z,83.23
2023-02-07T11:15:20.553Z,82.69
2023-02-07T11:16:20.244Z,82.8
2023-02-07T11:17:21.671Z,83.29
2023-02-07T11:19:27.017Z,82.67
2023-02-07T11:22:29.376Z,82.08
2023-02-07T11:23:30.108Z,82.43
2023-02-07T11:26:36.188Z,81.17
2023-02-07T11:27:41.803Z,81.1
2023-02-07T11:28:34.235Z,81.25
2023-02-07T11:29:45.106Z,82.13
2023-02-07T11:30:37.759Z,82.64
2023-02-07T11:31:38.942Z,82.9
2023-02-07T11:32:39.077Z,82.63
2023-02-07T11:33:38.783Z,82.29
2023-02-07T11:36:46.149Z,81.62
2023-02-07T11:38:50.887Z,81.6
2023-02-07T11:39:50.401Z,82.58
2023-02-07T11:40:49.187Z,83.35
2023-02-07T11:41:59.830Z,83.14
2023-02-07T11:43:01.889Z,83
2023-02-07T11:44:00.305Z,83.21
2023-02-07T11:45:03.021Z,82.75
2023-02-07T11:46:07.170Z,82.4
2023-02-07T11:47:05.398Z,82.17
2023-02-07T11:48:06.523Z,83.02
2023-02-07T11:49:18.719Z,83.12
2023-02-07T11:50:08.368Z,83.43
2023-02-07T11:51:09.818Z,83.65
2023-02-07T11:52:08.801Z,83.53
2023-02-07T11:53:15.871Z,83.66
2023-02-07T11:54:09.847Z,84.02
2023-02-07T11:55:18.035Z,84.04
2023-02-07T11:57:16.215Z,83.75
2023-02-07T12:02:26.323Z,83.68
2023-02-07T12:03:28.451Z,83.48
2023-02-07T12:08:36.146Z,83.62
2023-02-07T12:10:42.304Z,83
2023-02-07T12:11:42.412Z,83.21
2023-02-07T12:12:45.489Z,83.28
2023-02-07T12:16:56.275Z,83.57
2023-02-07T12:20:06.140Z,84.05
2023-02-07T12:24:24.998Z,83.85
2023-02-07T12:25:30.002Z,83.92
2023-02-07T12:27:35.493Z,83.95
2023-02-07T12:28:37.927Z,84.23
2023-02-07T12:30:41.658Z,84.1
2023-02-07T12:36:53.542Z,83.8
2023-02-07T12:37:54.268Z,83.7
2023-02-07T12:38:53.685Z,83.46
2023-02-07T12:45:03.536Z,83.78
2023-02-07T12:56:45.894Z,84.32
2023-02-07T13:22:59.792Z,84.83
2023-02-07T13:24:02.861Z,84.42
2023-02-07T13:25:02.673Z,84.29
2023-02-07T13:26:09.094Z,84.69
2023-02-07T13:27:06.159Z,84.79
2023-02-07T13:29:13.133Z,84.97
2023-02-07T13:30:18.670Z,84.82
2023-02-07T13:32:21.457Z,85.04
2023-02-07T13:34:28.023Z,84.99
2023-02-07T13:35:29.966Z,85.35
2023-02-07T13:52:10.932Z,85.11
2023-02-07T13:56:12.917Z,85.72
2023-02-07T14:00:25.544Z,85.6
2023-02-07T14:01:30.272Z,85.56
2023-02-07T14:02:28.315Z,85.32
2023-02-07T14:03:34.485Z,85.77
2023-02-07T14:05:41.263Z,85.81
2023-02-07T14:09:50.271Z,86.68
2023-02-07T14:10:56.432Z,86.44
2023-02-07T14:12:57.460Z,85.91
2023-02-07T14:16:13.544Z,85.99
2023-02-07T14:17:15.622Z,85.93
2023-02-07T14:24:31.859Z,87
2023-02-07T14:27:42.812Z,86.65
2023-02-07T14:28:40.379Z,86.66
2023-02-07T14:29:51.224Z,86.88
2023-02-07T14:36:54.877Z,86.97
2023-02-07T14:45:19.918Z,87.07
2023-02-07T14:46:18.302Z,87.17
2023-02-07T14:47:28.025Z,87.19
2023-02-07T14:50:30.768Z,87.99
2023-02-07T14:52:34.660Z,87.58
2023-02-07T14:53:32.043Z,87.81
2023-02-07T15:00:51.029Z,87.85
2023-02-07T15:01:48.647Z,87.83
2023-02-07T15:04:53.921Z,87.96
2023-02-07T15:06:00.102Z,87.85
2023-02-07T15:06:59.162Z,87.77
2023-02-07T15:09:02.773Z,88.05
2023-02-07T15:10:14.659Z,88.17
2023-02-07T15:11:13.839Z,88.2
2023-02-07T15:12:26.807Z,88.18
2023-02-07T15:16:22.828Z,88.27
2023-02-07T15:17:21.859Z,88.01
2023-02-07T15:18:22.502Z,88.21
2023-02-07T15:20:28.636Z,87.91
2023-02-07T15:21:39.532Z,88.13
2023-02-07T15:22:29.167Z,88.21
2023-02-07T15:23:30.381Z,88.08
2023-02-07T15:24:49.615Z,88.03
2023-02-07T15:25:31.822Z,88.08
2023-02-07T15:26:29.593Z,88.05
2023-02-07T15:27:30.110Z,87.99
2023-02-07T15:28:32.146Z,88.46
2023-02-07T15:29:32.889Z,88.61
2023-02-07T15:30:31.744Z,88.12
2023-02-07T15:31:30.921Z,88.12
2023-02-07T15:32:35.369Z,88.42
2023-02-07T15:33:38.243Z,88.33
2023-02-07T15:34:35.492Z,88.57
2023-02-07T15:35:39.074Z,88.49
2023-02-07T15:36:39.191Z,88.37
2023-02-07T15:37:36.843Z,88.17
2023-02-07T15:38:36.959Z,88.35
2023-02-07T15:39:37.581Z,88.49
2023-02-07T15:40:37.813Z,88.58
2023-02-07T15:41:37.987Z,88.49
2023-02-07T15:42:38.510Z,88.53
2023-02-07T15:48:55.269Z,88.51
2023-02-07T15:50:59.869Z,88.29
2023-02-07T15:54:03.160Z,88.61
2023-02-07T15:56:08.600Z,88.57
2023-02-07T15:59:19.472Z,88.79
2023-02-07T16:01:26.492Z,88.7
2023-02-07T16:02:30.005Z,88.81
2023-02-07T16:04:31.572Z,88.93
2023-02-07T16:06:31.398Z,88.9
2023-02-07T16:07:30.783Z,88.8
2023-02-07T16:08:38.791Z,88.93
2023-02-07T16:10:38.802Z,88.93
2023-02-07T16:11:39.322Z,88.7
2023-02-07T16:14:43.214Z,88.77
2023-02-07T16:17:43.661Z,88.61
2023-02-07T16:18:47.968Z,88.68
2023-02-07T16:19:49.607Z,88.7
2023-02-07T16:20:47.163Z,88.81
2023-02-07T16:22:49.016Z,89.3
2023-02-07T16:23:52.610Z,89.45
2023-02-07T16:24:51.862Z,89.07
2023-02-07T16:25:50.167Z,89.13
2023-02-07T16:26:52.029Z,88.96
2023-02-07T16:27:52.579Z,89.1
2023-02-07T16:28:51.531Z,89.31
2023-02-07T16:29:51.795Z,89.02
2023-02-07T16:30:52.089Z,88.82
2023-02-07T16:31:53.637Z,88.82
2023-02-07T16:32:52.670Z,89.18
2023-02-07T16:33:52.883Z,89.11
2023-02-07T16:34:59.600Z,89.28
2023-02-07T16:35:57.300Z,89.28
2023-02-07T16:36:57.602Z,89.2
2023-02-07T16:37:58.043Z,89.17
2023-02-07T16:38:58.263Z,89.2
2023-02-07T16:39:58.678Z,89.47
2023-02-07T16:40:59.598Z,89.29
2023-02-07T16:42:07.679Z,89.3
2023-02-07T16:43:04.310Z,89.35
2023-02-07T16:44:05.156Z,89.24
2023-02-07T16:45:02.379Z,89.32
2023-02-07T16:46:03.427Z,89.43
2023-02-07T16:47:03.836Z,89.51
2023-02-07T16:48:03.711Z,89.59
2023-02-07T16:51:11.027Z,89.54
2023-02-07T16:52:11.641Z,89.5
2023-02-07T16:53:11.552Z,89.28
2023-02-07T16:54:12.175Z,89.13
2023-02-07T16:55:12.384Z,89.38
2023-02-07T16:57:13.527Z,89.87
2023-02-07T16:59:19.311Z,89.76
2023-02-07T17:00:19.993Z,89.29
2023-02-07T17:01:21.908Z,89.42
2023-02-07T17:02:19.729Z,89.85
2023-02-07T17:03:20.017Z,89.71
2023-02-07T17:04:21.666Z,89.75
2023-02-07T17:05:22.605Z,89.66
2023-02-07T17:06:23.400Z,89.53
2023-02-07T17:07:21.393Z,89.19
2023-02-07T17:08:23.430Z,89.26
2023-02-07T17:09:25.474Z,89.24
2023-02-07T17:10:28.884Z,89.33
2023-02-07T17:11:26.542Z,89.2
2023-02-07T17:12:26.643Z,89.07
2023-02-07T17:13:27.048Z,89
2023-02-07T17:14:28.683Z,88.96
2023-02-07T17:15:27.563Z,89.25
2023-02-07T17:16:28.316Z,89.42
2023-02-07T17:17:28.803Z,89.5
2023-02-07T17:18:30.174Z,89.51
2023-02-07T17:19:29.127Z,89.38
2023-02-07T17:20:33.135Z,89.35
2023-02-07T17:21:30.591Z,89.55
2023-02-07T17:22:30.774Z,89.5
2023-02-07T17:23:31.203Z,89.41
2023-02-07T17:24:31.619Z,89.3
2023-02-07T17:25:41.824Z,89.44
2023-02-07T17:26:34.688Z,89.35
2023-02-07T17:27:35.033Z,89.27
2023-02-07T17:28:34.821Z,89.39
2023-02-07T17:29:35.130Z,89.51
2023-02-07T17:30:39.815Z,89.55
2023-02-07T17:31:37.515Z,89.34
2023-02-07T17:32:37.819Z,89.39
2023-02-07T17:33:41.320Z,89.43
2023-02-07T17:34:38.861Z,89.38
2023-02-07T17:35:39.491Z,89.38
2023-02-07T17:36:43.792Z,89.3
2023-02-07T17:37:41.516Z,89.1
2023-02-07T17:38:42.482Z,89.13
2023-02-07T17:39:42.169Z,89.18
2023-02-07T17:40:42.789Z,89.2
2023-02-07T17:41:42.806Z,89.15
2023-02-07T17:42:43.312Z,89.18
2023-02-07T17:43:43.417Z,89.29
2023-02-07T17:44:43.638Z,89.36
2023-02-07T17:45:44.239Z,89.33
2023-02-07T17:46:44.674Z,89.35
2023-02-07T17:47:44.696Z,89.41
2023-02-07T17:48:46.338Z,89.46
2023-02-07T17:49:46.228Z,89.44
2023-02-07T17:50:45.614Z,89.42
2023-02-07T17:51:45.984Z,89.55
2023-02-07T17:52:47.580Z,89.81
2023-02-07T17:53:47.065Z,89.87
2023-02-07T17:54:46.972Z,89.81
2023-02-07T17:55:48.209Z,89.47
2023-02-07T17:56:48.938Z,89.2
2023-02-07T17:57:48.035Z,89.55
2023-02-07T17:58:48.339Z,89.35
2023-02-07T17:59:48.649Z,89.13
2023-02-07T18:00:49.339Z,89.02
2023-02-07T18:01:49.276Z,89.22
2023-02-07T18:02:49.905Z,89.21
2023-02-07T18:03:52.049Z,89.22
2023-02-07T18:04:50.423Z,89.45
2023-02-07T18:05:51.251Z,89.54
2023-02-07T18:06:51.154Z,89.62
2023-02-07T18:07:52.805Z,89.56
2023-02-07T18:08:52.160Z,89.3
2023-02-07T18:09:51.985Z,89.51
2023-02-07T18:10:52.404Z,89.38
2023-02-07T18:11:52.923Z,89.45
2023-02-07T18:12:53.860Z,89.44
2023-02-07T18:13:53.458Z,89.4
2023-02-07T18:14:55.705Z,89.2
2023-02-07T18:15:54.026Z,89.31
2023-02-07T18:16:54.285Z,89.33
2023-02-07T18:17:55.325Z,89.51
2023-02-07T18:18:56.465Z,89.73
2023-02-07T18:19:56.238Z,89.8
2023-02-07T18:20:55.857Z,89.84
2023-02-07T18:21:55.961Z,89.79
2023-02-07T18:22:57.737Z,89.65
2023-02-07T18:23:56.998Z,89.55
2023-02-07T18:24:59.870Z,89.62
2023-02-07T18:25:57.527Z,89.67
2023-02-07T18:26:57.835Z,89.59